sensor_id;sensor_type;location;lat;lon;timestamp;P1;durP1;ratioP1;P2;durP2;ratioP2
29776;SDS011;16677;52.224;7.484;2022-12-07T00:01:37;13.13;;;11.87;;
29776;SDS011;16677;52.224;7.484;2022-12-07T00:04:06;14.13;;;12.23;;
29776;SDS011;16677;52.224;7.484;2022-12-07T00:06:38;12.73;;;11.10;;
29776;SDS011;16677;52.224;7.484;2022-12-07T00:09:14;12.50;;;10.87;;
29776;SDS011;16677;52.224;7.484;2022-12-07T00:11:43;11.83;;;10.63;;
29776;SDS011;16677;52.224;7.484;2022-12-07T00:14:12;12.80;;;10.80;;
29776;SDS011;16677;52.224;7.484;2022-12-07T00:16:41;13.17;;;10.40;;
29776;SDS011;16677;52.224;7.484;2022-12-07T00:19:10;13.90;;;10.27;;
29776;SDS011;16677;52.224;7.484;2022-12-07T00:21:39;10.97;;;9.83;;
29776;SDS011;16677;52.224;7.484;2022-12-07T00:24:06;11.23;;;10.03;;
29776;SDS011;16677;52.224;7.484;2022-12-07T00:26:35;10.80;;;9.63;;
29776;SDS011;16677;52.224;7.484;2022-12-07T00:29:11;11.93;;;10.67;;
29776;SDS011;16677;52.224;7.484;2022-12-07T00:31:44;13.77;;;10.90;;
29776;SDS011;16677;52.224;7.484;2022-12-07T00:34:13;12.17;;;10.87;;
29776;SDS011;16677;52.224;7.484;2022-12-07T00:36:42;11.60;;;10.40;;
29776;SDS011;16677;52.224;7.484;2022-12-07T00:39:09;11.83;;;10.60;;
29776;SDS011;16677;52.224;7.484;2022-12-07T00:41:38;15.97;;;10.77;;
29776;SDS011;16677;52.224;7.484;2022-12-07T00:44:05;14.77;;;11.17;;
29776;SDS011;16677;52.224;7.484;2022-12-07T00:46:32;14.20;;;10.80;;
29776;SDS011;16677;52.224;7.484;2022-12-07T00:49:00;11.40;;;10.20;;
29776;SDS011;16677;52.224;7.484;2022-12-07T00:51:27;16.40;;;11.07;;
29776;SDS011;16677;52.224;7.484;2022-12-07T00:53:54;12.23;;;10.70;;
29776;SDS011;16677;52.224;7.484;2022-12-07T00:56:27;13.27;;;11.20;;
29776;SDS011;16677;52.224;7.484;2022-12-07T01:01:25;13.20;;;10.53;;
29776;SDS011;16677;52.224;7.484;2022-12-07T01:03:54;12.47;;;10.67;;
29776;SDS011;16677;52.224;7.484;2022-12-07T01:06:25;10.83;;;9.73;;
29776;SDS011;16677;52.224;7.484;2022-12-07T01:08:54;15.60;;;10.40;;
29776;SDS011;16677;52.224;7.484;2022-12-07T01:11:22;14.57;;;11.00;;
29776;SDS011;16677;52.224;7.484;2022-12-07T01:13:52;14.67;;;10.10;;
29776;SDS011;16677;52.224;7.484;2022-12-07T01:16:24;12.33;;;9.10;;
29776;SDS011;16677;52.224;7.484;2022-12-07T01:18:54;12.63;;;9.17;;
29776;SDS011;16677;52.224;7.484;2022-12-07T01:21:23;12.77;;;9.87;;
29776;SDS011;16677;52.224;7.484;2022-12-07T01:23:53;14.63;;;8.70;;
29776;SDS011;16677;52.224;7.484;2022-12-07T01:26:22;11.70;;;8.57;;
29776;SDS011;16677;52.224;7.484;2022-12-07T01:28:50;11.93;;;8.43;;
29776;SDS011;16677;52.224;7.484;2022-12-07T01:31:19;16.10;;;8.00;;
29776;SDS011;16677;52.224;7.484;2022-12-07T01:33:49;12.03;;;8.00;;
29776;SDS011;16677;52.224;7.484;2022-12-07T01:36:24;11.07;;;7.90;;
29776;SDS011;16677;52.224;7.484;2022-12-07T01:38:57;9.90;;;7.37;;
29776;SDS011;16677;52.224;7.484;2022-12-07T01:41:28;9.43;;;7.03;;
29776;SDS011;16677;52.224;7.484;2022-12-07T01:44:11;12.50;;;7.40;;
29776;SDS011;16677;52.224;7.484;2022-12-07T01:46:39;11.03;;;6.60;;
29776;SDS011;16677;52.224;7.484;2022-12-07T01:49:09;13.00;;;7.20;;
29776;SDS011;16677;52.224;7.484;2022-12-07T01:51:42;9.20;;;7.17;;
29776;SDS011;16677;52.224;7.484;2022-12-07T01:54:11;9.60;;;6.63;;
29776;SDS011;16677;52.224;7.484;2022-12-07T01:56:41;7.60;;;6.30;;
29776;SDS011;16677;52.224;7.484;2022-12-07T01:59:14;9.93;;;6.73;;
29776;SDS011;16677;52.224;7.484;2022-12-07T02:01:44;9.17;;;6.03;;
29776;SDS011;16677;52.224;7.484;2022-12-07T02:04:11;8.00;;;6.30;;
29776;SDS011;16677;52.224;7.484;2022-12-07T02:06:39;10.80;;;6.10;;
29776;SDS011;16677;52.224;7.484;2022-12-07T02:09:08;11.97;;;6.60;;
29776;SDS011;16677;52.224;7.484;2022-12-07T02:11:35;9.43;;;5.53;;
29776;SDS011;16677;52.224;7.484;2022-12-07T02:14:02;7.67;;;6.17;;
29776;SDS011;16677;52.224;7.484;2022-12-07T02:40:22;9.53;;;6.07;;
29776;SDS011;16677;52.224;7.484;2022-12-07T02:42:59;9.77;;;4.70;;
29776;SDS011;16677;52.224;7.484;2022-12-07T02:45:38;13.27;;;5.27;;
29776;SDS011;16677;52.224;7.484;2022-12-07T02:48:08;10.63;;;5.40;;
29776;SDS011;16677;52.224;7.484;2022-12-07T02:50:38;10.10;;;5.00;;
29776;SDS011;16677;52.224;7.484;2022-12-07T02:53:30;8.43;;;4.57;;
29776;SDS011;16677;52.224;7.484;2022-12-07T02:59:02;10.07;;;4.70;;
29776;SDS011;16677;52.224;7.484;2022-12-07T03:06:58;7.77;;;4.10;;
29776;SDS011;16677;52.224;7.484;2022-12-07T03:09:32;7.07;;;3.80;;
29776;SDS011;16677;52.224;7.484;2022-12-07T03:12:16;10.50;;;4.20;;
29776;SDS011;16677;52.224;7.484;2022-12-07T03:14:50;11.60;;;4.10;;
29776;SDS011;16677;52.224;7.484;2022-12-07T03:17:25;13.63;;;4.30;;
29776;SDS011;16677;52.224;7.484;2022-12-07T03:19:56;12.17;;;4.20;;
29776;SDS011;16677;52.224;7.484;2022-12-07T03:22:28;8.43;;;3.87;;
29776;SDS011;16677;52.224;7.484;2022-12-07T03:24:58;7.50;;;3.80;;
29776;SDS011;16677;52.224;7.484;2022-12-07T03:27:33;10.73;;;4.13;;
29776;SDS011;16677;52.224;7.484;2022-12-07T03:35:12;10.50;;;4.23;;
29776;SDS011;16677;52.224;7.484;2022-12-07T03:37:45;6.63;;;4.17;;
29776;SDS011;16677;52.224;7.484;2022-12-07T03:40:43;12.20;;;4.47;;
29776;SDS011;16677;52.224;7.484;2022-12-07T03:43:13;7.23;;;4.00;;
29776;SDS011;16677;52.224;7.484;2022-12-07T03:45:42;9.87;;;4.23;;
29776;SDS011;16677;52.224;7.484;2022-12-07T03:48:15;8.47;;;3.27;;
29776;SDS011;16677;52.224;7.484;2022-12-07T03:51:06;6.90;;;4.20;;
29776;SDS011;16677;52.224;7.484;2022-12-07T03:53:51;7.17;;;4.10;;
29776;SDS011;16677;52.224;7.484;2022-12-07T03:56:23;12.27;;;3.87;;
29776;SDS011;16677;52.224;7.484;2022-12-07T03:58:52;7.97;;;3.90;;
29776;SDS011;16677;52.224;7.484;2022-12-07T04:01:20;8.07;;;3.60;;
29776;SDS011;16677;52.224;7.484;2022-12-07T04:03:49;8.47;;;3.53;;
29776;SDS011;16677;52.224;7.484;2022-12-07T04:06:16;12.30;;;3.53;;
29776;SDS011;16677;52.224;7.484;2022-12-07T04:08:43;6.73;;;3.13;;
29776;SDS011;16677;52.224;7.484;2022-12-07T04:11:12;10.30;;;3.57;;
29776;SDS011;16677;52.224;7.484;2022-12-07T04:13:39;9.67;;;3.57;;
29776;SDS011;16677;52.224;7.484;2022-12-07T04:16:24;7.63;;;3.50;;
29776;SDS011;16677;52.224;7.484;2022-12-07T04:18:52;11.97;;;3.23;;
29776;SDS011;16677;52.224;7.484;2022-12-07T04:21:18;6.40;;;3.40;;
29776;SDS011;16677;52.224;7.484;2022-12-07T04:23:45;7.17;;;3.90;;
29776;SDS011;16677;52.224;7.484;2022-12-07T04:26:13;8.88;;;3.80;;
29776;SDS011;16677;52.224;7.484;2022-12-07T04:28:40;8.67;;;3.83;;
29776;SDS011;16677;52.224;7.484;2022-12-07T04:31:07;6.70;;;3.13;;
29776;SDS011;16677;52.224;7.484;2022-12-07T04:33:35;9.53;;;3.60;;
29776;SDS011;16677;52.224;7.484;2022-12-07T04:36:16;7.97;;;3.17;;
29776;SDS011;16677;52.224;7.484;2022-12-07T04:38:46;7.03;;;3.00;;
29776;SDS011;16677;52.224;7.484;2022-12-07T04:41:13;8.57;;;3.23;;
29776;SDS011;16677;52.224;7.484;2022-12-07T04:43:40;4.83;;;2.83;;
29776;SDS011;16677;52.224;7.484;2022-12-07T04:46:07;11.03;;;3.47;;
29776;SDS011;16677;52.224;7.484;2022-12-07T04:48:34;5.97;;;2.80;;
29776;SDS011;16677;52.224;7.484;2022-12-07T04:51:02;9.00;;;3.80;;
29776;SDS011;16677;52.224;7.484;2022-12-07T04:53:30;6.73;;;3.50;;
29776;SDS011;16677;52.224;7.484;2022-12-07T04:55:57;7.53;;;3.17;;
29776;SDS011;16677;52.224;7.484;2022-12-07T04:58:24;13.03;;;3.53;;
29776;SDS011;16677;52.224;7.484;2022-12-07T05:00:53;8.17;;;2.80;;
29776;SDS011;16677;52.224;7.484;2022-12-07T05:03:21;6.43;;;2.63;;
29776;SDS011;16677;52.224;7.484;2022-12-07T05:05:48;13.23;;;3.10;;
29776;SDS011;16677;52.224;7.484;2022-12-07T05:08:15;11.83;;;3.10;;
29776;SDS011;16677;52.224;7.484;2022-12-07T05:10:43;7.67;;;2.90;;
29776;SDS011;16677;52.224;7.484;2022-12-07T05:13:10;5.17;;;2.97;;
29776;SDS011;16677;52.224;7.484;2022-12-07T05:15:39;8.70;;;2.83;;
29776;SDS011;16677;52.224;7.484;2022-12-07T05:18:07;7.63;;;2.70;;
29776;SDS011;16677;52.224;7.484;2022-12-07T05:20:35;10.10;;;2.70;;
29776;SDS011;16677;52.224;7.484;2022-12-07T05:23:08;7.07;;;3.00;;
29776;SDS011;16677;52.224;7.484;2022-12-07T05:25:35;6.37;;;2.70;;
29776;SDS011;16677;52.224;7.484;2022-12-07T05:28:02;9.93;;;2.93;;
29776;SDS011;16677;52.224;7.484;2022-12-07T05:30:30;9.17;;;2.97;;
29776;SDS011;16677;52.224;7.484;2022-12-07T05:32:57;13.87;;;4.07;;
29776;SDS011;16677;52.224;7.484;2022-12-07T05:35:25;5.60;;;3.03;;
29776;SDS011;16677;52.224;7.484;2022-12-07T05:37:52;6.63;;;3.33;;
29776;SDS011;16677;52.224;7.484;2022-12-07T05:40:19;10.73;;;2.70;;
29776;SDS011;16677;52.224;7.484;2022-12-07T05:42:47;11.40;;;3.57;;
29776;SDS011;16677;52.224;7.484;2022-12-07T05:45:15;7.53;;;3.50;;
29776;SDS011;16677;52.224;7.484;2022-12-07T05:47:42;8.20;;;3.40;;
29776;SDS011;16677;52.224;7.484;2022-12-07T05:50:10;9.30;;;2.70;;
29776;SDS011;16677;52.224;7.484;2022-12-07T05:52:54;10.97;;;2.33;;
29776;SDS011;16677;52.224;7.484;2022-12-07T05:55:25;9.10;;;3.03;;
29776;SDS011;16677;52.224;7.484;2022-12-07T05:57:54;13.80;;;2.90;;
29776;SDS011;16677;52.224;7.484;2022-12-07T06:00:58;8.80;;;2.67;;
29776;SDS011;16677;52.224;7.484;2022-12-07T06:03:28;5.40;;;2.73;;
29776;SDS011;16677;52.224;7.484;2022-12-07T06:05:58;6.97;;;2.27;;
29776;SDS011;16677;52.224;7.484;2022-12-07T06:08:36;9.67;;;2.30;;
29776;SDS011;16677;52.224;7.484;2022-12-07T06:11:03;12.03;;;3.07;;
29776;SDS011;16677;52.224;7.484;2022-12-07T06:13:48;10.33;;;2.47;;
29776;SDS011;16677;52.224;7.484;2022-12-07T06:16:15;7.00;;;2.00;;
29776;SDS011;16677;52.224;7.484;2022-12-07T06:18:42;5.83;;;1.90;;
29776;SDS011;16677;52.224;7.484;2022-12-07T06:21:09;5.00;;;2.10;;
29776;SDS011;16677;52.224;7.484;2022-12-07T06:23:36;9.03;;;2.30;;
29776;SDS011;16677;52.224;7.484;2022-12-07T06:26:03;7.10;;;2.43;;
29776;SDS011;16677;52.224;7.484;2022-12-07T06:28:30;13.10;;;2.60;;
29776;SDS011;16677;52.224;7.484;2022-12-07T06:30:57;9.33;;;2.70;;
29776;SDS011;16677;52.224;7.484;2022-12-07T06:33:26;8.80;;;2.30;;
29776;SDS011;16677;52.224;7.484;2022-12-07T06:35:53;8.77;;;2.60;;
29776;SDS011;16677;52.224;7.484;2022-12-07T06:38:20;8.73;;;3.13;;
29776;SDS011;16677;52.224;7.484;2022-12-07T06:43:14;8.35;;;2.92;;
29776;SDS011;16677;52.224;7.484;2022-12-07T06:45:41;8.87;;;2.80;;
29776;SDS011;16677;52.224;7.484;2022-12-07T06:48:08;8.87;;;3.13;;
29776;SDS011;16677;52.224;7.484;2022-12-07T06:50:35;7.20;;;3.00;;
29776;SDS011;16677;52.224;7.484;2022-12-07T06:53:02;8.55;;;3.58;;
29776;SDS011;16677;52.224;7.484;2022-12-07T06:55:29;10.23;;;2.53;;
29776;SDS011;16677;52.224;7.484;2022-12-07T07:02:52;9.88;;;3.55;;
29776;SDS011;16677;52.224;7.484;2022-12-07T07:05:19;12.33;;;3.60;;
29776;SDS011;16677;52.224;7.484;2022-12-07T07:07:49;10.43;;;3.17;;
29776;SDS011;16677;52.224;7.484;2022-12-07T07:10:37;11.03;;;3.00;;
29776;SDS011;16677;52.224;7.484;2022-12-07T07:13:04;10.65;;;3.88;;
29776;SDS011;16677;52.224;7.484;2022-12-07T07:15:32;12.00;;;4.00;;
29776;SDS011;16677;52.224;7.484;2022-12-07T07:17:59;9.93;;;3.00;;
29776;SDS011;16677;52.224;7.484;2022-12-07T07:20:33;9.10;;;3.00;;
29776;SDS011;16677;52.224;7.484;2022-12-07T07:23:00;7.50;;;3.20;;
29776;SDS011;16677;52.224;7.484;2022-12-07T07:25:27;7.73;;;2.80;;
29776;SDS011;16677;52.224;7.484;2022-12-07T07:27:53;6.70;;;2.80;;
29776;SDS011;16677;52.224;7.484;2022-12-07T07:30:20;10.43;;;2.90;;
29776;SDS011;16677;52.224;7.484;2022-12-07T07:32:47;9.57;;;2.37;;
29776;SDS011;16677;52.224;7.484;2022-12-07T07:35:14;8.43;;;2.27;;
29776;SDS011;16677;52.224;7.484;2022-12-07T07:37:41;10.87;;;2.77;;
29776;SDS011;16677;52.224;7.484;2022-12-07T07:40:09;11.43;;;4.30;;
29776;SDS011;16677;52.224;7.484;2022-12-07T07:42:36;9.73;;;4.50;;
29776;SDS011;16677;52.224;7.484;2022-12-07T07:45:03;8.60;;;3.87;;
29776;SDS011;16677;52.224;7.484;2022-12-07T07:47:30;9.87;;;3.03;;
29776;SDS011;16677;52.224;7.484;2022-12-07T07:49:57;7.53;;;2.63;;
29776;SDS011;16677;52.224;7.484;2022-12-07T07:52:24;8.33;;;2.30;;
29776;SDS011;16677;52.224;7.484;2022-12-07T07:54:51;12.30;;;2.83;;
29776;SDS011;16677;52.224;7.484;2022-12-07T07:57:19;8.93;;;2.53;;
29776;SDS011;16677;52.224;7.484;2022-12-07T07:59:45;11.90;;;2.93;;
29776;SDS011;16677;52.224;7.484;2022-12-07T08:02:16;12.97;;;3.37;;
29776;SDS011;16677;52.224;7.484;2022-12-07T08:04:45;12.73;;;3.47;;
29776;SDS011;16677;52.224;7.484;2022-12-07T08:07:13;7.73;;;2.90;;
29776;SDS011;16677;52.224;7.484;2022-12-07T08:09:41;8.13;;;3.07;;
29776;SDS011;16677;52.224;7.484;2022-12-07T08:12:08;9.83;;;3.30;;
29776;SDS011;16677;52.224;7.484;2022-12-07T08:14:35;10.40;;;3.20;;
29776;SDS011;16677;52.224;7.484;2022-12-07T08:17:02;9.17;;;2.83;;
29776;SDS011;16677;52.224;7.484;2022-12-07T08:19:28;18.77;;;3.27;;
29776;SDS011;16677;52.224;7.484;2022-12-07T08:21:55;9.93;;;2.70;;
29776;SDS011;16677;52.224;7.484;2022-12-07T08:24:22;5.17;;;2.40;;
29776;SDS011;16677;52.224;7.484;2022-12-07T08:26:51;7.17;;;2.90;;
29776;SDS011;16677;52.224;7.484;2022-12-07T08:29:18;11.67;;;4.17;;
29776;SDS011;16677;52.224;7.484;2022-12-07T08:31:46;7.40;;;2.73;;
29776;SDS011;16677;52.224;7.484;2022-12-07T08:34:13;10.40;;;3.27;;
29776;SDS011;16677;52.224;7.484;2022-12-07T08:36:40;8.97;;;3.13;;
29776;SDS011;16677;52.224;7.484;2022-12-07T08:39:07;11.53;;;3.67;;
29776;SDS011;16677;52.224;7.484;2022-12-07T08:41:54;8.03;;;2.90;;
29776;SDS011;16677;52.224;7.484;2022-12-07T08:44:21;8.47;;;2.70;;
29776;SDS011;16677;52.224;7.484;2022-12-07T08:46:49;7.03;;;3.20;;
29776;SDS011;16677;52.224;7.484;2022-12-07T08:49:27;9.93;;;3.13;;
29776;SDS011;16677;52.224;7.484;2022-12-07T08:51:59;7.97;;;3.30;;
29776;SDS011;16677;52.224;7.484;2022-12-07T08:54:27;8.65;;;3.25;;
29776;SDS011;16677;52.224;7.484;2022-12-07T08:56:55;8.85;;;3.20;;
29776;SDS011;16677;52.224;7.484;2022-12-07T08:59:25;7.53;;;3.37;;
29776;SDS011;16677;52.224;7.484;2022-12-07T09:01:54;8.90;;;2.87;;
29776;SDS011;16677;52.224;7.484;2022-12-07T09:04:21;7.17;;;2.77;;
29776;SDS011;16677;52.224;7.484;2022-12-07T09:06:48;9.50;;;3.30;;
29776;SDS011;16677;52.224;7.484;2022-12-07T09:09:15;9.30;;;2.63;;
29776;SDS011;16677;52.224;7.484;2022-12-07T09:11:42;8.17;;;2.93;;
29776;SDS011;16677;52.224;7.484;2022-12-07T09:14:11;8.50;;;3.00;;
29776;SDS011;16677;52.224;7.484;2022-12-07T09:16:38;9.97;;;3.10;;
29776;SDS011;16677;52.224;7.484;2022-12-07T09:19:07;8.07;;;3.40;;
29776;SDS011;16677;52.224;7.484;2022-12-07T09:21:34;7.87;;;2.70;;
29776;SDS011;16677;52.224;7.484;2022-12-07T09:24:01;7.23;;;2.90;;
29776;SDS011;16677;52.224;7.484;2022-12-07T09:26:28;12.87;;;2.63;;
29776;SDS011;16677;52.224;7.484;2022-12-07T09:28:55;9.13;;;2.50;;
29776;SDS011;16677;52.224;7.484;2022-12-07T09:31:22;4.63;;;2.50;;
29776;SDS011;16677;52.224;7.484;2022-12-07T09:33:57;7.97;;;2.40;;
29776;SDS011;16677;52.224;7.484;2022-12-07T09:36:26;13.53;;;2.77;;
29776;SDS011;16677;52.224;7.484;2022-12-07T09:38:54;16.53;;;2.80;;
29776;SDS011;16677;52.224;7.484;2022-12-07T09:41:21;10.83;;;2.97;;
29776;SDS011;16677;52.224;7.484;2022-12-07T09:43:50;7.40;;;2.90;;
29776;SDS011;16677;52.224;7.484;2022-12-07T09:46:19;7.47;;;2.50;;
29776;SDS011;16677;52.224;7.484;2022-12-07T09:48:47;7.17;;;3.17;;
29776;SDS011;16677;52.224;7.484;2022-12-07T09:51:17;8.80;;;3.07;;
29776;SDS011;16677;52.224;7.484;2022-12-07T09:53:54;8.83;;;2.80;;
29776;SDS011;16677;52.224;7.484;2022-12-07T09:56:24;9.10;;;2.33;;
29776;SDS011;16677;52.224;7.484;2022-12-07T09:58:54;6.70;;;2.93;;
29776;SDS011;16677;52.224;7.484;2022-12-07T10:01:28;9.03;;;2.37;;
29776;SDS011;16677;52.224;7.484;2022-12-07T10:04:05;8.03;;;2.77;;
29776;SDS011;16677;52.224;7.484;2022-12-07T10:06:33;4.80;;;2.40;;
29776;SDS011;16677;52.224;7.484;2022-12-07T10:09:00;5.40;;;2.60;;
29776;SDS011;16677;52.224;7.484;2022-12-07T10:11:26;8.90;;;2.60;;
29776;SDS011;16677;52.224;7.484;2022-12-07T10:13:53;5.60;;;2.40;;
29776;SDS011;16677;52.224;7.484;2022-12-07T10:18:51;5.80;;;2.20;;
29776;SDS011;16677;52.224;7.484;2022-12-07T10:21:19;8.23;;;2.97;;
29776;SDS011;16677;52.224;7.484;2022-12-07T10:24:08;6.37;;;2.43;;
29776;SDS011;16677;52.224;7.484;2022-12-07T10:29:31;8.60;;;2.40;;
29776;SDS011;16677;52.224;7.484;2022-12-07T10:32:02;6.87;;;2.53;;
29776;SDS011;16677;52.224;7.484;2022-12-07T10:34:41;6.60;;;2.20;;
29776;SDS011;16677;52.224;7.484;2022-12-07T10:37:17;11.50;;;2.63;;
29776;SDS011;16677;52.224;7.484;2022-12-07T10:42:20;8.33;;;2.30;;
29776;SDS011;16677;52.224;7.484;2022-12-07T10:44:49;5.40;;;1.83;;
29776;SDS011;16677;52.224;7.484;2022-12-07T10:47:34;10.07;;;4.50;;
29776;SDS011;16677;52.224;7.484;2022-12-07T10:58:31;5.10;;;2.40;;
29776;SDS011;16677;52.224;7.484;2022-12-07T11:03:41;4.37;;;2.10;;
29776;SDS011;16677;52.224;7.484;2022-12-07T11:12:30;5.40;;;2.43;;
29776;SDS011;16677;52.224;7.484;2022-12-07T11:15:04;5.40;;;2.33;;
29776;SDS011;16677;52.224;7.484;2022-12-07T11:17:44;10.20;;;2.50;;
29776;SDS011;16677;52.224;7.484;2022-12-07T11:26:49;8.90;;;2.67;;
29776;SDS011;16677;52.224;7.484;2022-12-07T11:37:25;11.97;;;2.97;;
29776;SDS011;16677;52.224;7.484;2022-12-07T11:40:08;9.83;;;2.50;;
29776;SDS011;16677;52.224;7.484;2022-12-07T11:45:42;8.00;;;2.07;;
29776;SDS011;16677;52.224;7.484;2022-12-07T11:48:17;4.23;;;2.13;;
29776;SDS011;16677;52.224;7.484;2022-12-07T11:50:54;6.13;;;2.33;;
29776;SDS011;16677;52.224;7.484;2022-12-07T11:53:39;10.20;;;2.50;;
29776;SDS011;16677;52.224;7.484;2022-12-07T11:56:13;9.03;;;1.83;;
29776;SDS011;16677;52.224;7.484;2022-12-07T11:58:50;9.25;;;2.72;;
29776;SDS011;16677;52.224;7.484;2022-12-07T12:04:00;8.13;;;2.50;;
29776;SDS011;16677;52.224;7.484;2022-12-07T12:06:37;6.10;;;2.27;;
29776;SDS011;16677;52.224;7.484;2022-12-07T12:20:44;6.57;;;2.43;;
29776;SDS011;16677;52.224;7.484;2022-12-07T12:23:24;7.07;;;2.40;;
29776;SDS011;16677;52.224;7.484;2022-12-07T12:26:07;8.07;;;2.73;;
29776;SDS011;16677;52.224;7.484;2022-12-07T12:33:52;8.10;;;2.20;;
29776;SDS011;16677;52.224;7.484;2022-12-07T12:41:59;9.13;;;3.10;;
29776;SDS011;16677;52.224;7.484;2022-12-07T12:51:47;6.83;;;1.90;;
29776;SDS011;16677;52.224;7.484;2022-12-07T12:54:30;5.87;;;1.93;;
29776;SDS011;16677;52.224;7.484;2022-12-07T13:02:29;12.03;;;3.10;;
29776;SDS011;16677;52.224;7.484;2022-12-07T13:15:38;7.17;;;2.10;;
29776;SDS011;16677;52.224;7.484;2022-12-07T13:23:37;4.73;;;1.90;;
29776;SDS011;16677;52.224;7.484;2022-12-07T13:31:48;6.80;;;2.00;;
29776;SDS011;16677;52.224;7.484;2022-12-07T13:37:01;10.43;;;2.40;;
29776;SDS011;16677;52.224;7.484;2022-12-07T13:42:24;6.67;;;2.10;;
29776;SDS011;16677;52.224;7.484;2022-12-07T13:44:56;8.47;;;2.53;;
29776;SDS011;16677;52.224;7.484;2022-12-07T13:47:31;8.57;;;2.83;;
29776;SDS011;16677;52.224;7.484;2022-12-07T13:50:20;7.97;;;2.43;;
29776;SDS011;16677;52.224;7.484;2022-12-07T13:52:48;7.93;;;1.93;;
29776;SDS011;16677;52.224;7.484;2022-12-07T13:55:16;7.97;;;2.40;;
29776;SDS011;16677;52.224;7.484;2022-12-07T13:57:44;6.73;;;2.37;;
29776;SDS011;16677;52.224;7.484;2022-12-07T14:00:14;4.93;;;2.33;;
29776;SDS011;16677;52.224;7.484;2022-12-07T14:02:59;5.57;;;2.40;;
29776;SDS011;16677;52.224;7.484;2022-12-07T14:05:32;9.57;;;2.40;;
29776;SDS011;16677;52.224;7.484;2022-12-07T14:15:58;5.93;;;2.20;;
29776;SDS011;16677;52.224;7.484;2022-12-07T14:18:26;6.93;;;2.20;;
29776;SDS011;16677;52.224;7.484;2022-12-07T14:23:38;6.63;;;2.20;;
29776;SDS011;16677;52.224;7.484;2022-12-07T14:28:36;9.50;;;2.30;;
29776;SDS011;16677;52.224;7.484;2022-12-07T14:31:07;6.20;;;3.13;;
29776;SDS011;16677;52.224;7.484;2022-12-07T14:33:49;8.63;;;2.83;;
29776;SDS011;16677;52.224;7.484;2022-12-07T14:36:16;4.33;;;2.17;;
29776;SDS011;16677;52.224;7.484;2022-12-07T14:38:43;6.33;;;2.50;;
29776;SDS011;16677;52.224;7.484;2022-12-07T14:41:12;8.67;;;2.60;;
29776;SDS011;16677;52.224;7.484;2022-12-07T14:44:01;8.77;;;2.20;;
29776;SDS011;16677;52.224;7.484;2022-12-07T14:46:49;6.93;;;2.30;;
29776;SDS011;16677;52.224;7.484;2022-12-07T14:49:36;10.43;;;2.57;;
29776;SDS011;16677;52.224;7.484;2022-12-07T14:52:03;8.67;;;3.40;;
29776;SDS011;16677;52.224;7.484;2022-12-07T14:54:51;7.87;;;2.43;;
29776;SDS011;16677;52.224;7.484;2022-12-07T14:57:19;8.60;;;2.60;;
29776;SDS011;16677;52.224;7.484;2022-12-07T14:59:46;6.90;;;3.10;;
29776;SDS011;16677;52.224;7.484;2022-12-07T15:02:13;7.00;;;2.90;;
29776;SDS011;16677;52.224;7.484;2022-12-07T15:04:41;9.33;;;2.80;;
29776;SDS011;16677;52.224;7.484;2022-12-07T15:07:16;6.27;;;3.53;;
29776;SDS011;16677;52.224;7.484;2022-12-07T15:09:46;8.70;;;3.27;;
29776;SDS011;16677;52.224;7.484;2022-12-07T15:12:14;5.53;;;2.60;;
29776;SDS011;16677;52.224;7.484;2022-12-07T15:14:41;14.13;;;3.37;;
29776;SDS011;16677;52.224;7.484;2022-12-07T15:17:09;12.20;;;3.33;;
29776;SDS011;16677;52.224;7.484;2022-12-07T15:19:53;7.87;;;3.40;;
29776;SDS011;16677;52.224;7.484;2022-12-07T15:22:20;9.67;;;3.40;;
29776;SDS011;16677;52.224;7.484;2022-12-07T15:24:46;8.17;;;2.83;;
29776;SDS011;16677;52.224;7.484;2022-12-07T15:27:14;6.73;;;2.70;;
29776;SDS011;16677;52.224;7.484;2022-12-07T15:29:41;7.23;;;2.70;;
29776;SDS011;16677;52.224;7.484;2022-12-07T15:32:07;7.27;;;2.43;;
29776;SDS011;16677;52.224;7.484;2022-12-07T15:34:34;6.87;;;3.10;;
29776;SDS011;16677;52.224;7.484;2022-12-07T15:37:06;8.50;;;3.23;;
29776;SDS011;16677;52.224;7.484;2022-12-07T15:39:35;7.07;;;3.00;;
29776;SDS011;16677;52.224;7.484;2022-12-07T15:42:05;10.23;;;3.40;;
29776;SDS011;16677;52.224;7.484;2022-12-07T15:44:31;8.23;;;3.50;;
29776;SDS011;16677;52.224;7.484;2022-12-07T15:47:17;8.77;;;4.37;;
29776;SDS011;16677;52.224;7.484;2022-12-07T15:49:44;11.10;;;4.13;;
29776;SDS011;16677;52.224;7.484;2022-12-07T15:52:11;6.80;;;4.30;;
29776;SDS011;16677;52.224;7.484;2022-12-07T15:54:38;8.93;;;3.47;;
29776;SDS011;16677;52.224;7.484;2022-12-07T15:57:05;9.30;;;3.47;;
29776;SDS011;16677;52.224;7.484;2022-12-07T15:59:32;13.17;;;3.40;;
29776;SDS011;16677;52.224;7.484;2022-12-07T16:01:59;6.03;;;2.93;;
29776;SDS011;16677;52.224;7.484;2022-12-07T16:04:27;7.37;;;3.13;;
29776;SDS011;16677;52.224;7.484;2022-12-07T16:06:55;6.23;;;2.70;;
29776;SDS011;16677;52.224;7.484;2022-12-07T16:09:22;8.87;;;3.00;;
29776;SDS011;16677;52.224;7.484;2022-12-07T16:11:49;11.53;;;3.60;;
29776;SDS011;16677;52.224;7.484;2022-12-07T16:14:16;11.60;;;4.03;;
29776;SDS011;16677;52.224;7.484;2022-12-07T16:16:43;8.00;;;3.37;;
29776;SDS011;16677;52.224;7.484;2022-12-07T16:19:10;9.13;;;3.37;;
29776;SDS011;16677;52.224;7.484;2022-12-07T16:21:37;11.20;;;3.77;;
29776;SDS011;16677;52.224;7.484;2022-12-07T16:24:05;8.43;;;3.50;;
29776;SDS011;16677;52.224;7.484;2022-12-07T16:26:33;11.37;;;3.40;;
29776;SDS011;16677;52.224;7.484;2022-12-07T16:29:00;11.60;;;3.90;;
29776;SDS011;16677;52.224;7.484;2022-12-07T16:31:28;11.43;;;4.67;;
29776;SDS011;16677;52.224;7.484;2022-12-07T16:33:56;14.53;;;4.13;;
29776;SDS011;16677;52.224;7.484;2022-12-07T16:36:24;11.03;;;4.10;;
29776;SDS011;16677;52.224;7.484;2022-12-07T16:39:13;9.03;;;4.30;;
29776;SDS011;16677;52.224;7.484;2022-12-07T16:41:40;12.20;;;4.47;;
29776;SDS011;16677;52.224;7.484;2022-12-07T16:44:09;10.73;;;4.13;;
29776;SDS011;16677;52.224;7.484;2022-12-07T16:46:38;15.03;;;4.07;;
29776;SDS011;16677;52.224;7.484;2022-12-07T16:49:06;14.60;;;5.47;;
29776;SDS011;16677;52.224;7.484;2022-12-07T16:51:35;31.73;;;17.23;;
29776;SDS011;16677;52.224;7.484;2022-12-07T16:54:03;25.83;;;13.00;;
29776;SDS011;16677;52.224;7.484;2022-12-07T16:56:30;24.73;;;10.23;;
29776;SDS011;16677;52.224;7.484;2022-12-07T16:59:00;16.87;;;7.33;;
29776;SDS011;16677;52.224;7.484;2022-12-07T17:01:27;18.13;;;6.87;;
29776;SDS011;16677;52.224;7.484;2022-12-07T17:03:56;17.23;;;8.20;;
29776;SDS011;16677;52.224;7.484;2022-12-07T17:06:26;14.67;;;6.87;;
29776;SDS011;16677;52.224;7.484;2022-12-07T17:08:54;14.87;;;6.93;;
29776;SDS011;16677;52.224;7.484;2022-12-07T17:11:26;10.87;;;4.90;;
29776;SDS011;16677;52.224;7.484;2022-12-07T17:13:57;13.73;;;6.57;;
29776;SDS011;16677;52.224;7.484;2022-12-07T17:16:42;13.23;;;5.27;;
29776;SDS011;16677;52.224;7.484;2022-12-07T17:19:11;9.83;;;4.20;;
29776;SDS011;16677;52.224;7.484;2022-12-07T17:21:40;11.70;;;4.13;;
29776;SDS011;16677;52.224;7.484;2022-12-07T17:24:09;8.07;;;3.63;;
29776;SDS011;16677;52.224;7.484;2022-12-07T17:26:37;8.87;;;4.47;;
29776;SDS011;16677;52.224;7.484;2022-12-07T17:29:05;12.70;;;5.80;;
29776;SDS011;16677;52.224;7.484;2022-12-07T17:31:35;8.83;;;4.60;;
29776;SDS011;16677;52.224;7.484;2022-12-07T17:34:02;10.57;;;5.03;;
29776;SDS011;16677;52.224;7.484;2022-12-07T17:36:30;10.53;;;4.60;;
29776;SDS011;16677;52.224;7.484;2022-12-07T17:38:58;7.70;;;4.30;;
29776;SDS011;16677;52.224;7.484;2022-12-07T17:41:26;10.57;;;4.53;;
29776;SDS011;16677;52.224;7.484;2022-12-07T17:44:16;9.93;;;4.20;;
29776;SDS011;16677;52.224;7.484;2022-12-07T17:46:45;10.33;;;4.37;;
29776;SDS011;16677;52.224;7.484;2022-12-07T17:49:13;9.07;;;4.00;;